createdAt,value
2019-06-01T00:02:19.298Z,6.33
2019-06-01T00:05:19.706Z,7.10
2019-06-01T00:08:20.361Z,6.60
2019-06-01T00:11:21.197Z,7.20
2019-06-01T00:14:21.851Z,8.07
2019-06-01T00:17:22.526Z,7.17
2019-06-01T00:20:23.277Z,7.07
2019-06-01T00:23:23.996Z,7.60
2019-06-01T00:26:24.860Z,7.70
2019-06-01T00:29:25.639Z,7.20
2019-06-01T00:32:26.358Z,7.97
2019-06-01T00:35:26.969Z,7.20
2019-06-01T00:38:27.694Z,7.80
2019-06-01T00:41:28.698Z,7.90
2019-06-01T00:44:29.498Z,7.80
2019-06-01T00:47:30.505Z,7.27
2019-06-01T00:50:31.422Z,7.50
2019-06-01T00:53:32.040Z,8.50
2019-06-01T00:56:32.841Z,8.30
2019-06-01T00:59:33.397Z,9.00
2019-06-01T01:02:34.215Z,8.53
2019-06-01T01:05:34.885Z,9.20
2019-06-01T01:08:35.593Z,9.07
2019-06-01T01:11:36.186Z,8.33
2019-06-01T01:14:36.982Z,9.07
2019-06-01T01:17:37.978Z,8.37
2019-06-01T01:20:38.785Z,9.57
2019-06-01T01:23:39.534Z,9.07
2019-06-01T01:26:40.241Z,8.03
2019-06-01T01:29:40.818Z,8.50
2019-06-01T01:32:41.597Z,8.63
2019-06-01T01:35:42.549Z,8.23
2019-06-01T01:38:43.330Z,8.93
2019-06-01T01:41:44.153Z,8.27
2019-06-01T01:44:45.296Z,8.43
2019-06-01T01:47:46.291Z,8.30
2019-06-01T01:50:46.933Z,8.63
2019-06-01T01:53:47.463Z,8.07
2019-06-01T01:56:48.213Z,8.40
2019-06-01T01:59:49.025Z,8.67
2019-06-01T02:02:49.829Z,8.87
2019-06-01T02:05:50.839Z,8.93
2019-06-01T02:08:51.476Z,8.87
2019-06-01T02:11:53.209Z,9.07
2019-06-01T02:14:53.905Z,9.33
2019-06-01T02:17:55.953Z,9.33
2019-06-01T02:20:56.361Z,9.20
2019-06-01T02:23:57.138Z,9.43
2019-06-01T02:26:59.354Z,10.13
2019-06-01T02:30:02.628Z,10.37
2019-06-01T02:33:04.656Z,8.50
2019-06-01T02:36:06.081Z,9.67
2019-06-01T02:39:06.763Z,9.97
2019-06-01T02:42:09.003Z,9.47
2019-06-01T02:45:09.383Z,8.93
2019-06-01T02:48:10.109Z,8.93
2019-06-01T02:51:11.097Z,8.77
2019-06-01T02:53:59.910Z,10.40
2019-06-01T02:57:00.325Z,9.07
2019-06-01T03:00:00.898Z,9.40
2019-06-01T03:03:02.671Z,9.23
2019-06-01T03:06:05.492Z,9.37
2019-06-01T03:09:06.761Z,9.00
2019-06-01T03:12:08.940Z,8.97
2019-06-01T03:15:09.814Z,9.53
2019-06-01T03:18:11.754Z,9.17
2019-06-01T03:21:12.262Z,9.00
2019-06-01T03:24:13.510Z,9.70
2019-06-01T03:27:14.089Z,9.53
2019-06-01T03:30:15.606Z,9.37
2019-06-01T03:33:17.105Z,9.83
2019-06-01T03:36:17.613Z,10.17
2019-06-01T03:39:18.527Z,10.13
2019-06-01T03:42:19.653Z,11.93
2019-06-01T03:45:20.141Z,10.97
2019-06-01T03:48:20.630Z,10.87
2019-06-01T03:51:21.324Z,10.60
2019-06-01T03:54:22.023Z,10.33
2019-06-01T03:57:22.687Z,11.60
2019-06-01T04:00:23.614Z,10.07
2019-06-01T04:03:24.387Z,9.97
2019-06-01T04:06:25.149Z,10.17
2019-06-01T04:09:26.058Z,10.43
2019-06-01T04:12:26.870Z,10.97
2019-06-01T04:15:28.237Z,13.50
2019-06-01T04:18:28.818Z,12.40
2019-06-01T04:21:29.405Z,12.30
2019-06-01T04:24:30.009Z,11.63
2019-06-01T04:27:30.798Z,11.40
2019-06-01T04:30:31.233Z,13.03
2019-06-01T04:33:31.712Z,13.83
2019-06-01T04:36:32.354Z,13.40
2019-06-01T04:39:33.050Z,13.93
2019-06-01T04:42:33.896Z,13.60
2019-06-01T04:45:34.776Z,12.73
2019-06-01T04:48:35.589Z,14.10
2019-06-01T04:51:36.343Z,14.43
2019-06-01T04:54:36.973Z,13.50
2019-06-01T04:57:37.815Z,14.40
2019-06-01T05:00:38.597Z,14.50
2019-06-01T05:03:39.509Z,15.17
2019-06-01T05:06:40.226Z,15.60
2019-06-01T05:09:40.936Z,15.27
2019-06-01T05:12:41.707Z,16.60
2019-06-01T05:15:42.366Z,15.77
2019-06-01T05:18:43.241Z,16.40
2019-06-01T05:21:43.909Z,15.50
2019-06-01T05:24:44.521Z,16.03
2019-06-01T05:27:45.259Z,16.17
2019-06-01T05:30:46.035Z,16.53
2019-06-01T05:33:46.877Z,15.80
2019-06-01T05:36:47.625Z,16.03
2019-06-01T05:39:48.282Z,15.97
2019-06-01T05:42:48.929Z,14.70
2019-06-01T05:45:49.988Z,14.27
2019-06-01T05:48:50.973Z,13.83
2019-06-01T05:51:51.474Z,13.67
2019-06-01T05:54:52.278Z,13.20
2019-06-01T05:57:53.266Z,14.00
2019-06-01T06:00:53.978Z,14.70
2019-06-01T06:03:54.789Z,14.10
2019-06-01T06:06:55.881Z,13.57
2019-06-01T06:09:56.449Z,13.20
2019-06-01T06:12:57.089Z,13.30
2019-06-01T06:15:57.914Z,12.43
2019-06-01T06:18:58.586Z,14.10
2019-06-01T06:21:59.226Z,14.03
2019-06-01T06:24:59.769Z,13.80
2019-06-01T06:28:00.490Z,11.80
2019-06-01T06:31:01.423Z,13.00
2019-06-01T06:34:02.402Z,11.57
2019-06-01T06:37:03.074Z,13.23
2019-06-01T06:40:04.029Z,12.17
2019-06-01T06:43:18.657Z,11.30
2019-06-01T06:46:07.907Z,11.37
2019-06-01T06:49:10.047Z,11.30
2019-06-01T06:52:11.290Z,10.13
2019-06-01T06:55:11.746Z,10.13
2019-06-01T06:58:12.463Z,10.17
2019-06-01T07:01:13.105Z,10.33
2019-06-01T07:04:13.738Z,9.67
2019-06-01T07:07:14.326Z,10.30
2019-06-01T07:10:15.141Z,9.73
2019-06-01T07:13:15.752Z,9.93
2019-06-01T07:16:16.297Z,10.87
2019-06-01T07:19:16.972Z,10.40
2019-06-01T07:22:17.571Z,8.77
2019-06-01T07:25:17.969Z,8.93
2019-06-01T07:28:19.885Z,8.20
2019-06-01T07:31:20.417Z,8.80
2019-06-01T07:34:35.562Z,8.30
2019-06-01T07:37:24.436Z,7.77
2019-06-01T07:40:26.658Z,8.17
2019-06-01T07:43:27.223Z,8.07
2019-06-01T07:46:28.942Z,7.67
2019-06-01T07:49:31.178Z,7.23
2019-06-01T07:52:32.386Z,7.30
2019-06-01T07:55:33.757Z,8.10
2019-06-01T07:58:34.469Z,6.73
2019-06-01T08:01:35.193Z,6.80
2019-06-01T08:04:52.448Z,7.40
2019-06-01T08:07:38.577Z,7.33
2019-06-01T08:10:39.649Z,8.20
2019-06-01T08:13:40.656Z,8.73
2019-06-01T08:16:41.690Z,9.37
2019-06-01T08:19:42.426Z,7.63
2019-06-01T08:22:43.213Z,7.17
2019-06-01T08:25:43.974Z,6.50
2019-06-01T08:28:44.589Z,7.47
2019-06-01T08:31:45.324Z,6.53
2019-06-01T08:34:45.935Z,5.17
2019-06-01T08:37:46.874Z,5.93
2019-06-01T08:40:47.822Z,5.70
2019-06-01T08:43:48.702Z,5.67
2019-06-01T08:46:49.462Z,5.07
2019-06-01T08:49:50.381Z,4.70
2019-06-01T08:52:51.058Z,5.60
2019-06-01T08:55:51.565Z,5.00
2019-06-01T08:58:52.461Z,5.23
2019-06-01T09:01:53.329Z,6.20
2019-06-01T09:04:54.232Z,4.40
2019-06-01T09:07:55.030Z,5.03
2019-06-01T09:10:55.809Z,5.43
2019-06-01T09:13:56.322Z,5.07
2019-06-01T09:16:57.218Z,5.13
2019-06-01T09:19:57.870Z,5.43
2019-06-01T09:22:58.382Z,4.60
2019-06-01T09:25:58.833Z,5.10
2019-06-01T09:28:59.540Z,4.60
2019-06-01T09:32:02.602Z,5.00
2019-06-01T09:35:03.946Z,5.60
2019-06-01T09:38:04.386Z,4.63
2019-06-01T09:41:05.414Z,5.90
2019-06-01T09:44:06.078Z,6.47
2019-06-01T09:47:07.350Z,4.77
2019-06-01T09:50:07.902Z,4.93
2019-06-01T09:53:08.517Z,5.27
2019-06-01T09:56:09.009Z,4.77
2019-06-01T09:59:09.890Z,5.40
2019-06-01T10:02:10.474Z,5.60
2019-06-01T10:05:11.181Z,5.10
2019-06-01T10:08:12.066Z,4.90
2019-06-01T10:11:12.976Z,5.93
2019-06-01T10:14:13.586Z,6.70
2019-06-01T10:17:14.477Z,5.90
2019-06-01T10:20:15.151Z,5.30
2019-06-01T10:23:15.909Z,5.87
2019-06-01T10:26:16.592Z,6.40
2019-06-01T10:29:17.164Z,5.47
2019-06-01T10:32:18.067Z,5.23
2019-06-01T10:35:18.997Z,6.13
2019-06-01T10:38:19.687Z,5.20
2019-06-01T10:41:20.296Z,5.60
2019-06-01T10:44:21.079Z,5.10
2019-06-01T10:47:21.881Z,4.77
2019-06-01T10:50:22.814Z,4.87
2019-06-01T10:53:23.521Z,5.40
2019-06-01T10:56:24.072Z,4.30
2019-06-01T10:59:24.762Z,4.17
2019-06-01T11:02:25.621Z,4.07
2019-06-01T11:05:26.414Z,4.87
2019-06-01T11:08:27.233Z,4.33
2019-06-01T11:11:28.052Z,3.63
2019-06-01T11:14:28.730Z,3.63
2019-06-01T11:17:29.521Z,3.70
2019-06-01T11:20:30.487Z,3.87
2019-06-01T11:23:31.022Z,3.30
2019-06-01T11:26:31.778Z,4.00
2019-06-01T11:29:35.867Z,3.47
2019-06-01T11:32:33.670Z,2.87
2019-06-01T11:35:43.417Z,3.27
2019-06-01T11:38:51.537Z,3.17
2019-06-01T11:41:59.552Z,3.57
2019-06-01T11:45:07.990Z,2.80
2019-06-01T11:48:16.018Z,3.57
2019-06-01T11:51:24.028Z,3.57
2019-06-01T11:54:32.054Z,3.07
2019-06-01T11:57:33.073Z,3.30
2019-06-01T12:00:33.717Z,3.60
2019-06-01T12:03:35.526Z,3.60
2019-06-01T12:06:36.089Z,3.93
2019-06-01T12:09:37.659Z,3.53
2019-06-01T12:12:38.435Z,3.77
2019-06-01T12:15:40.193Z,3.20
2019-06-01T12:18:40.722Z,3.10
2019-06-01T12:21:41.374Z,3.13
2019-06-01T12:24:42.981Z,3.10
2019-06-01T12:27:43.645Z,2.83
2019-06-01T12:30:44.365Z,3.50
2019-06-01T12:33:46.361Z,2.87
2019-06-01T12:36:48.439Z,3.17
2019-06-01T12:39:52.138Z,2.90
2019-06-01T12:42:51.966Z,3.10
2019-06-01T12:46:06.682Z,2.57
2019-06-01T12:48:55.558Z,2.90
2019-06-01T12:51:56.219Z,3.00
2019-06-01T12:54:56.760Z,2.60
2019-06-01T12:57:57.486Z,2.97
2019-06-01T13:01:02.642Z,2.53
2019-06-01T13:04:00.453Z,2.80
2019-06-01T13:07:01.263Z,2.57
2019-06-01T13:10:00.476Z,3.00
2019-06-01T13:13:08.561Z,2.80
2019-06-01T13:19:29.832Z,3.30
2019-06-01T13:22:37.853Z,3.00
2019-06-01T13:25:45.881Z,3.60
2019-06-01T13:28:53.893Z,4.40
2019-06-01T13:32:01.917Z,3.67
2019-06-01T13:35:10.053Z,3.47
2019-06-01T13:38:18.075Z,3.33
2019-06-01T13:41:26.173Z,3.10
2019-06-01T13:44:34.185Z,4.60
2019-06-01T13:47:43.360Z,3.20
2019-06-01T13:50:52.055Z,3.07
2019-06-01T13:54:01.657Z,3.97
2019-06-01T13:57:09.689Z,3.13
2019-06-01T14:00:10.175Z,3.17
2019-06-01T14:03:11.159Z,3.43
2019-06-01T14:06:11.717Z,3.40
2019-06-01T14:09:12.615Z,3.57
2019-06-01T14:12:13.316Z,3.30
2019-06-01T14:15:02.162Z,3.20
2019-06-01T14:18:10.962Z,3.10
2019-06-01T14:21:19.064Z,3.23
2019-06-01T14:24:20.162Z,3.43
2019-06-01T14:27:20.853Z,4.20
2019-06-01T14:30:24.040Z,3.10
2019-06-01T14:33:24.509Z,3.03
2019-06-01T14:36:25.573Z,2.87
2019-06-01T14:39:26.337Z,3.30
2019-06-01T14:42:27.237Z,3.23
2019-06-01T14:45:28.054Z,3.33
2019-06-01T14:48:28.958Z,2.90
2019-06-01T14:51:29.698Z,3.00
2019-06-01T14:54:30.311Z,3.47
2019-06-01T14:57:31.211Z,3.50
2019-06-01T15:00:31.909Z,3.03
2019-06-01T15:03:32.665Z,2.90
2019-06-01T15:06:33.417Z,2.97
2019-06-01T15:09:34.237Z,4.03
2019-06-01T15:12:35.322Z,2.60
2019-06-01T15:15:36.029Z,2.77
2019-06-01T15:18:37.348Z,2.97
2019-06-01T15:21:38.021Z,2.97
2019-06-01T15:24:38.865Z,3.20
2019-06-01T15:27:39.542Z,3.23
2019-06-01T15:30:40.325Z,3.00
2019-06-01T15:33:41.401Z,3.20
2019-06-01T15:36:42.145Z,3.67
2019-06-01T15:39:42.841Z,3.90
2019-06-01T15:42:43.768Z,2.70
2019-06-01T15:45:44.706Z,2.63
2019-06-01T15:48:45.501Z,3.20
2019-06-01T15:51:49.170Z,2.90
2019-06-01T15:54:51.988Z,2.60
2019-06-01T15:57:54.253Z,2.60
2019-06-01T16:00:55.093Z,2.50
2019-06-01T16:03:57.335Z,2.63
2019-06-01T16:06:59.299Z,2.77
2019-06-01T16:10:06.472Z,2.43
2019-06-01T16:13:04.462Z,2.50
2019-06-01T16:16:05.912Z,2.40
2019-06-01T16:19:08.030Z,2.60
2019-06-01T16:22:09.508Z,3.00
2019-06-01T16:25:10.366Z,2.73
2019-06-01T16:28:11.342Z,3.10
2019-06-01T16:31:12.150Z,2.60
2019-06-01T16:34:12.822Z,2.50
2019-06-01T16:37:13.725Z,2.53
2019-06-01T16:40:14.517Z,2.27
2019-06-01T16:43:15.170Z,2.43
2019-06-01T16:46:15.811Z,2.70
2019-06-01T16:49:17.110Z,2.40
2019-06-01T16:52:17.671Z,2.80
2019-06-01T16:55:18.402Z,3.10
2019-06-01T16:58:19.337Z,2.83
2019-06-01T17:01:20.036Z,2.97
2019-06-01T17:04:20.829Z,2.70
2019-06-01T17:07:21.633Z,2.90
2019-06-01T17:10:26.496Z,3.10
2019-06-01T17:13:25.005Z,2.60
2019-06-01T17:16:25.689Z,2.23
2019-06-01T17:19:26.661Z,2.90
2019-06-01T17:22:27.457Z,3.23
2019-06-01T17:25:28.325Z,2.40
2019-06-01T17:28:29.040Z,2.60
2019-06-01T17:31:29.627Z,3.10
2019-06-01T17:34:30.518Z,2.67
2019-06-01T17:37:31.284Z,3.00
2019-06-01T17:40:37.427Z,2.80
2019-06-01T17:43:34.433Z,2.47
2019-06-01T17:46:50.036Z,2.40
2019-06-01T17:49:38.158Z,2.60
2019-06-01T17:52:38.753Z,2.77
2019-06-01T17:55:39.503Z,2.20
2019-06-01T17:58:40.299Z,2.20
2019-06-01T18:01:42.452Z,2.20
2019-06-01T18:04:43.837Z,2.67
2019-06-01T18:07:44.586Z,2.50
2019-06-01T18:10:53.914Z,2.30
2019-06-01T18:13:48.255Z,2.23
2019-06-01T18:16:49.046Z,2.50
2019-06-01T18:19:49.916Z,2.23
2019-06-01T18:22:50.640Z,2.73
2019-06-01T18:25:51.337Z,2.33
2019-06-01T18:28:52.333Z,2.40
2019-06-01T18:31:53.250Z,2.30
2019-06-01T18:34:53.885Z,2.80
2019-06-01T18:37:54.664Z,2.60
2019-06-01T18:41:08.814Z,2.50
2019-06-01T18:43:58.397Z,3.20
2019-06-01T18:46:59.106Z,2.90
2019-06-01T18:49:59.777Z,2.80
2019-06-01T18:53:00.564Z,2.90
2019-06-01T18:56:01.545Z,2.77
2019-06-01T18:59:02.181Z,2.83
2019-06-01T19:02:02.818Z,3.20
2019-06-01T19:05:04.826Z,3.00
2019-06-01T19:08:05.513Z,3.00
2019-06-01T19:11:06.075Z,2.80
2019-06-01T19:14:07.826Z,2.57
2019-06-01T19:17:08.715Z,2.80
2019-06-01T19:20:11.032Z,3.00
2019-06-01T19:23:12.777Z,2.77
2019-06-01T19:26:16.335Z,2.93
2019-06-01T19:29:17.023Z,3.00
2019-06-01T19:32:21.063Z,3.03
2019-06-01T19:35:20.345Z,3.07
2019-06-01T19:38:21.064Z,3.40
2019-06-01T19:41:21.842Z,2.63
2019-06-01T19:44:22.461Z,2.87
2019-06-01T19:47:23.341Z,2.80
2019-06-01T19:50:24.174Z,3.03
2019-06-01T19:53:24.898Z,3.10
2019-06-01T19:56:25.564Z,2.90
2019-06-01T19:59:26.437Z,3.10
2019-06-01T20:02:33.771Z,3.47
2019-06-01T20:05:29.985Z,3.50
2019-06-01T20:08:30.734Z,3.80
2019-06-01T20:11:31.394Z,4.30
2019-06-01T20:14:32.170Z,3.90
2019-06-01T20:17:32.894Z,4.50
2019-06-01T20:20:33.582Z,5.00
2019-06-01T20:23:34.081Z,4.33
2019-06-01T20:26:42.114Z,4.13
2019-06-01T20:29:37.761Z,4.60
2019-06-01T20:32:38.602Z,4.63
2019-06-01T20:35:39.698Z,4.63
2019-06-01T20:38:40.258Z,4.37
2019-06-01T20:41:40.896Z,4.37
2019-06-01T20:44:41.645Z,4.73
2019-06-01T20:47:42.411Z,5.10
2019-06-01T20:50:43.343Z,5.07
2019-06-01T20:53:44.097Z,5.03
2019-06-01T20:56:45.143Z,4.50
2019-06-01T20:59:45.778Z,4.77
2019-06-01T21:02:46.644Z,5.20
2019-06-01T21:05:47.378Z,5.63
2019-06-01T21:08:49.493Z,5.43
2019-06-01T21:11:50.234Z,5.20
2019-06-01T21:14:50.913Z,6.40
2019-06-01T21:17:51.803Z,5.97
2019-06-01T21:20:52.553Z,9.03
2019-06-01T21:23:53.508Z,6.43
2019-06-01T21:26:54.313Z,6.60
2019-06-01T21:29:55.160Z,10.10
2019-06-01T21:32:55.887Z,8.60
2019-06-01T21:35:56.576Z,9.73
2019-06-01T21:38:57.594Z,8.80
2019-06-01T21:41:58.310Z,8.50
2019-06-01T21:44:59.154Z,5.87
2019-06-01T21:47:59.812Z,6.00
2019-06-01T21:51:00.406Z,6.27
2019-06-01T21:54:01.166Z,5.40
2019-06-01T21:57:02.095Z,5.40
2019-06-01T22:00:03.043Z,5.20
2019-06-01T22:03:03.703Z,4.23
2019-06-01T22:06:04.625Z,4.83
2019-06-01T22:09:05.269Z,4.27
2019-06-01T22:12:06.354Z,5.70
2019-06-01T22:15:06.884Z,5.87
2019-06-01T22:18:07.926Z,5.00
2019-06-01T22:21:08.769Z,3.97
2019-06-01T22:24:09.257Z,4.97
2019-06-01T22:27:10.269Z,4.73
2019-06-01T22:30:10.960Z,5.27
2019-06-01T22:33:11.779Z,5.80
2019-06-01T22:36:12.457Z,7.40
2019-06-01T22:39:13.122Z,7.30
2019-06-01T22:42:13.889Z,5.77
2019-06-01T22:45:14.594Z,6.30
2019-06-01T22:48:15.441Z,7.27
2019-06-01T22:51:16.137Z,8.07
2019-06-01T22:54:17.242Z,5.57
2019-06-01T22:57:18.209Z,6.43
2019-06-01T23:00:19.221Z,7.77
2019-06-01T23:03:20.205Z,6.17
2019-06-01T23:06:21.061Z,6.20
2019-06-01T23:09:22.956Z,6.37
2019-06-01T23:12:23.728Z,6.43
2019-06-01T23:15:25.610Z,5.87
2019-06-01T23:18:27.843Z,5.40
2019-06-01T23:21:28.425Z,5.83
2019-06-01T23:24:30.275Z,6.47
2019-06-01T23:27:31.433Z,5.43
2019-06-01T23:30:33.029Z,5.93
2019-06-01T23:33:34.354Z,5.80
2019-06-01T23:36:35.281Z,5.20
2019-06-01T23:39:35.698Z,5.80
2019-06-01T23:42:36.418Z,5.67
2019-06-01T23:45:37.316Z,6.03
2019-06-01T23:48:38.062Z,6.13
2019-06-01T23:51:39.222Z,5.80
2019-06-01T23:54:39.746Z,5.23
2019-06-01T23:57:40.678Z,5.77
